createdAt,value
2023-10-12T00:00:11.695Z,17.30
2023-10-12T00:00:23.466Z,17.70
2023-10-12T00:00:35.304Z,18.15
2023-10-12T00:00:47.079Z,14.65
2023-10-12T00:00:58.914Z,12.70
2023-10-12T00:01:10.734Z,10.05
2023-10-12T00:01:22.472Z,12.65
2023-10-12T00:01:34.162Z,13.73
2023-10-12T00:01:47.231Z,17.58
2023-10-12T00:01:59.977Z,18.25
2023-10-12T00:02:13.398Z,17.35
2023-10-12T00:02:26.364Z,13.80
2023-10-12T00:02:38.103Z,13.07
2023-10-12T00:02:49.959Z,15.35
2023-10-12T00:03:01.777Z,15.30
2023-10-12T00:03:13.723Z,14.88
2023-10-12T00:03:25.635Z,14.65
2023-10-12T00:03:37.554Z,13.90
2023-10-12T00:03:49.277Z,16.15
2023-10-12T00:04:01.063Z,14.68
2023-10-12T00:04:14.325Z,14.85
2023-10-12T00:04:28.645Z,16.20
2023-10-12T00:04:40.767Z,13.02
2023-10-12T00:04:52.675Z,12.35
2023-10-12T00:05:04.913Z,13.98
2023-10-12T00:05:16.716Z,22.15
2023-10-12T00:05:28.412Z,24.75
2023-10-12T00:05:40.177Z,27.55
2023-10-12T00:05:51.887Z,17.15
2023-10-12T00:06:03.773Z,15.88
2023-10-12T00:06:15.460Z,11.70
2023-10-12T00:06:27.184Z,13.15
2023-10-12T00:06:39.065Z,11.93
2023-10-12T00:06:50.861Z,12.00
2023-10-12T00:07:02.654Z,14.00
2023-10-12T00:07:14.429Z,14.50
2023-10-12T00:07:26.196Z,15.07
2023-10-12T00:07:37.932Z,13.15
2023-10-12T00:07:49.696Z,15.32
2023-10-12T00:08:01.728Z,19.60
2023-10-12T00:08:14.310Z,16.55
2023-10-12T00:08:26.053Z,12.43
2023-10-12T00:08:37.731Z,12.23
2023-10-12T00:08:49.441Z,11.48
2023-10-12T00:09:01.165Z,13.80
2023-10-12T00:09:12.877Z,14.32
2023-10-12T00:09:24.567Z,13.27
2023-10-12T00:09:36.497Z,12.25
2023-10-12T00:09:49.134Z,13.77
2023-10-12T00:10:01.702Z,14.50
2023-10-12T00:10:14.105Z,13.40
2023-10-12T00:10:25.855Z,13.40
2023-10-12T00:10:37.576Z,14.05
2023-10-12T00:10:49.335Z,13.95
2023-10-12T00:11:01.015Z,13.65
2023-10-12T00:11:12.734Z,11.18
2023-10-12T00:11:32.377Z,10.63
2023-10-12T00:11:44.747Z,15.00
2023-10-12T00:11:56.492Z,16.35
2023-10-12T00:12:08.205Z,13.50
2023-10-12T00:12:20.037Z,14.50
2023-10-12T00:12:31.771Z,12.85
2023-10-12T00:12:45.569Z,11.55
2023-10-12T00:12:57.427Z,10.75
2023-10-12T00:13:10.178Z,15.10
2023-10-12T00:13:21.946Z,16.70
2023-10-12T00:13:33.713Z,12.90
2023-10-12T00:13:45.489Z,16.55
2023-10-12T00:13:57.220Z,16.17
2023-10-12T00:14:08.939Z,13.43
2023-10-12T00:14:20.644Z,10.55
2023-10-12T00:14:32.383Z,20.55
2023-10-12T00:14:44.125Z,21.95
2023-10-12T00:14:56.022Z,22.55
2023-10-12T00:15:08.691Z,15.55
2023-10-12T00:15:22.168Z,15.02
2023-10-12T00:15:34.308Z,16.52
2023-10-12T00:15:46.082Z,17.95
2023-10-12T00:15:57.813Z,13.30
2023-10-12T00:16:09.723Z,12.25
2023-10-12T00:16:21.525Z,14.23
2023-10-12T00:16:33.348Z,19.85
2023-10-12T00:16:45.159Z,18.52
2023-10-12T00:16:56.945Z,17.80
2023-10-12T00:17:08.885Z,15.45
2023-10-12T00:17:20.569Z,19.48
2023-10-12T00:17:32.276Z,19.25
2023-10-12T00:17:44.289Z,18.23
2023-10-12T00:17:58.653Z,15.90
2023-10-12T00:18:10.575Z,14.90
2023-10-12T00:18:22.502Z,14.00
2023-10-12T00:18:34.265Z,15.23
2023-10-12T00:18:46.490Z,17.80
2023-10-12T00:18:58.277Z,18.38
2023-10-12T00:19:09.990Z,17.20
2023-10-12T00:19:23.235Z,13.02
2023-10-12T00:19:34.998Z,12.13
2023-10-12T00:19:46.788Z,12.25
2023-10-12T00:19:58.595Z,13.23
2023-10-12T00:20:11.228Z,13.40
2023-10-12T00:20:23.034Z,14.40
2023-10-12T00:20:34.832Z,15.02
2023-10-12T00:20:46.597Z,14.90
2023-10-12T00:20:58.846Z,15.38
2023-10-12T00:21:10.567Z,14.45
2023-10-12T00:21:22.319Z,13.68
2023-10-12T00:21:34.109Z,15.35
2023-10-12T00:21:45.815Z,16.30
2023-10-12T00:21:57.710Z,17.55
2023-10-12T00:22:09.567Z,15.70
2023-10-12T00:22:21.233Z,17.38
2023-10-12T00:22:32.976Z,16.33
2023-10-12T00:22:44.742Z,13.27
2023-10-12T00:22:56.679Z,16.67
2023-10-12T00:23:08.841Z,15.63
2023-10-12T00:23:20.738Z,16.25
2023-10-12T00:23:32.516Z,17.20
2023-10-12T00:23:44.327Z,16.63
2023-10-12T00:23:56.067Z,14.57
2023-10-12T00:24:08.354Z,13.63
2023-10-12T00:24:20.329Z,14.68
2023-10-12T00:24:32.268Z,16.85
2023-10-12T00:24:44.065Z,15.40
2023-10-12T00:24:55.896Z,13.30
2023-10-12T00:25:07.812Z,14.07
2023-10-12T00:25:19.541Z,13.65
2023-10-12T00:25:31.377Z,12.60
2023-10-12T00:25:44.540Z,13.98
2023-10-12T00:25:56.453Z,15.23
2023-10-12T00:26:08.245Z,12.82
2023-10-12T00:26:20.520Z,20.20
2023-10-12T00:26:38.298Z,23.83
2023-10-12T00:26:50.058Z,18.48
2023-10-12T00:27:01.848Z,17.67
2023-10-12T00:27:13.561Z,15.57
2023-10-12T00:27:25.322Z,14.27
2023-10-12T00:27:37.024Z,12.68
2023-10-12T00:27:48.762Z,15.75
2023-10-12T00:28:00.533Z,19.88
2023-10-12T00:28:12.595Z,19.50
2023-10-12T00:28:25.787Z,18.27
2023-10-12T00:28:37.468Z,16.90
2023-10-12T00:28:49.203Z,18.40
2023-10-12T00:29:00.962Z,20.30
2023-10-12T00:29:12.643Z,17.73
2023-10-12T00:29:24.418Z,15.50
2023-10-12T00:29:36.184Z,17.10
2023-10-12T00:29:47.933Z,17.65
2023-10-12T00:30:00.304Z,17.15
2023-10-12T00:30:12.956Z,12.73
2023-10-12T00:30:24.722Z,12.45
2023-10-12T00:30:36.538Z,13.73
2023-10-12T00:30:49.707Z,15.02
2023-10-12T00:31:01.641Z,14.82
2023-10-12T00:31:13.542Z,17.17
2023-10-12T00:31:25.382Z,23.38
2023-10-12T00:31:37.360Z,25.73
2023-10-12T00:31:49.285Z,17.13
2023-10-12T00:32:00.988Z,19.05
2023-10-12T00:32:14.041Z,18.63
2023-10-12T00:32:25.757Z,17.25
2023-10-12T00:32:37.563Z,20.63
2023-10-12T00:32:49.539Z,17.70
2023-10-12T00:33:01.410Z,16.23
2023-10-12T00:33:13.222Z,15.15
2023-10-12T00:33:25.798Z,15.20
2023-10-12T00:33:37.766Z,16.70
2023-10-12T00:33:49.635Z,15.60
2023-10-12T00:34:01.567Z,17.05
2023-10-12T00:34:13.369Z,15.60
2023-10-12T00:34:26.438Z,12.52
2023-10-12T00:34:38.974Z,11.55
2023-10-12T00:34:50.672Z,12.55
2023-10-12T00:35:02.485Z,12.98
2023-10-12T00:35:14.371Z,12.73
2023-10-12T00:35:26.209Z,17.52
2023-10-12T00:35:37.945Z,19.73
2023-10-12T00:35:50.026Z,17.77
2023-10-12T00:36:02.140Z,16.33
2023-10-12T00:36:14.077Z,18.45
2023-10-12T00:36:27.034Z,18.88
2023-10-12T00:36:39.088Z,14.23
2023-10-12T00:36:51.919Z,13.18
2023-10-12T00:37:03.822Z,13.85
2023-10-12T00:37:15.579Z,16.13
2023-10-12T00:37:27.293Z,16.33
2023-10-12T00:37:39.120Z,16.65
2023-10-12T00:37:50.855Z,17.25
2023-10-12T00:38:02.716Z,16.88
2023-10-12T00:38:14.470Z,15.13
2023-10-12T00:38:26.243Z,15.27
2023-10-12T00:38:37.922Z,15.80
2023-10-12T00:38:49.813Z,14.88
2023-10-12T00:39:01.491Z,14.88
2023-10-12T00:39:13.391Z,21.45
2023-10-12T00:39:25.140Z,21.30
2023-10-12T00:39:36.891Z,18.10
2023-10-12T00:39:48.737Z,14.25
2023-10-12T00:40:00.525Z,13.95
2023-10-12T00:40:13.662Z,15.70
2023-10-12T00:40:25.381Z,17.17
2023-10-12T00:40:37.077Z,14.45
2023-10-12T00:40:52.860Z,14.38
2023-10-12T00:41:04.758Z,16.35
2023-10-12T00:41:16.657Z,15.50
2023-10-12T00:41:28.328Z,14.18
2023-10-12T00:41:40.328Z,15.90
2023-10-12T00:41:53.436Z,18.08
2023-10-12T00:42:07.059Z,15.77
2023-10-12T00:42:18.880Z,14.75
2023-10-12T00:42:30.624Z,14.40
2023-10-12T00:42:42.459Z,15.55
2023-10-12T00:42:54.343Z,14.73
2023-10-12T00:43:06.125Z,15.90
2023-10-12T00:43:17.978Z,19.30
2023-10-12T00:43:29.711Z,18.00
2023-10-12T00:43:51.205Z,14.88
2023-10-12T00:44:03.036Z,15.90
2023-10-12T00:44:14.755Z,17.13
2023-10-12T00:44:26.516Z,20.05
2023-10-12T00:44:38.286Z,20.13
2023-10-12T00:44:50.081Z,21.27
2023-10-12T00:45:01.837Z,16.67
2023-10-12T00:45:13.560Z,15.05
2023-10-12T00:45:25.258Z,14.20
2023-10-12T00:45:37.074Z,14.90
2023-10-12T00:45:48.888Z,13.93
2023-10-12T00:46:01.179Z,14.10
2023-10-12T00:46:13.021Z,12.25
2023-10-12T00:46:24.907Z,16.38
2023-10-12T00:46:37.493Z,17.00
2023-10-12T00:46:49.331Z,19.38
2023-10-12T00:47:01.064Z,20.58
2023-10-12T00:47:12.745Z,19.35
2023-10-12T00:47:24.497Z,17.10
2023-10-12T00:47:36.204Z,14.07
2023-10-12T00:47:47.934Z,14.77
2023-10-12T00:47:59.802Z,17.77
2023-10-12T00:48:11.622Z,18.17
2023-10-12T00:48:23.501Z,21.23
2023-10-12T00:48:35.319Z,19.40
2023-10-12T00:48:47.533Z,21.25
2023-10-12T00:48:59.894Z,22.10
2023-10-12T00:49:11.935Z,19.83
2023-10-12T00:49:24.321Z,22.58
2023-10-12T00:49:37.646Z,20.20
2023-10-12T00:49:49.498Z,18.20
2023-10-12T00:50:01.292Z,17.17
2023-10-12T00:50:13.720Z,16.48
2023-10-12T00:50:25.478Z,15.52
2023-10-12T00:50:37.688Z,15.55
2023-10-12T00:50:50.120Z,14.75
2023-10-12T00:51:02.162Z,18.15
2023-10-12T00:51:13.886Z,23.45
2023-10-12T00:51:25.813Z,22.65
2023-10-12T00:51:37.813Z,16.52
2023-10-12T00:51:50.704Z,15.82
2023-10-12T00:52:02.762Z,16.40
2023-10-12T00:52:14.610Z,14.93
2023-10-12T00:52:26.485Z,13.60
2023-10-12T00:52:39.406Z,12.68
2023-10-12T00:52:51.346Z,11.65
2023-10-12T00:53:04.580Z,13.60
2023-10-12T00:53:17.362Z,17.48
2023-10-12T00:53:29.093Z,17.25
2023-10-12T00:53:40.882Z,12.45
2023-10-12T00:53:52.684Z,11.32
2023-10-12T00:54:05.357Z,11.65
2023-10-12T00:54:17.935Z,14.18
2023-10-12T00:54:31.158Z,16.02
2023-10-12T00:54:43.067Z,19.13
2023-10-12T00:54:55.836Z,18.02
2023-10-12T00:55:08.057Z,16.63
2023-10-12T00:55:19.887Z,15.00
2023-10-12T00:55:33.162Z,18.30
2023-10-12T00:55:46.997Z,21.40
2023-10-12T00:55:58.974Z,19.48
2023-10-12T00:56:10.736Z,15.82
2023-10-12T00:56:23.053Z,15.52
2023-10-12T00:56:34.911Z,13.35
2023-10-12T00:56:46.703Z,12.18
2023-10-12T00:56:59.472Z,12.27
2023-10-12T00:57:11.180Z,12.63
2023-10-12T00:57:23.216Z,13.65
2023-10-12T00:57:35.000Z,16.20
2023-10-12T00:57:47.500Z,16.17
2023-10-12T00:57:59.306Z,16.35
2023-10-12T00:58:11.035Z,17.65
2023-10-12T00:58:22.790Z,16.13
2023-10-12T00:58:34.471Z,11.73
2023-10-12T00:58:46.525Z,13.55
2023-10-12T00:58:58.529Z,13.77
2023-10-12T00:59:10.243Z,16.50
2023-10-12T00:59:22.134Z,16.50
2023-10-12T00:59:34.231Z,16.45
2023-10-12T00:59:45.970Z,14.85
2023-10-12T00:59:57.643Z,14.27
2023-10-12T01:00:10.540Z,14.85
2023-10-12T01:00:22.272Z,13.55
2023-10-12T01:00:35.975Z,18.35
2023-10-12T01:00:47.864Z,26.08
2023-10-12T01:00:59.653Z,26.10
2023-10-12T01:01:11.412Z,14.40
2023-10-12T01:01:23.446Z,12.88
2023-10-12T01:01:35.719Z,13.30
2023-10-12T01:01:47.496Z,14.48
2023-10-12T01:02:00.203Z,14.75
2023-10-12T01:02:12.330Z,15.38
2023-10-12T01:02:24.145Z,21.15
2023-10-12T01:02:35.982Z,22.55
2023-10-12T01:02:47.880Z,17.40
2023-10-12T01:02:59.670Z,16.08
2023-10-12T01:03:11.611Z,15.73
2023-10-12T01:03:23.362Z,17.35
2023-10-12T01:03:35.168Z,17.55
2023-10-12T01:03:47.008Z,16.35
2023-10-12T01:03:58.876Z,14.63
2023-10-12T01:04:10.697Z,12.13
2023-10-12T01:04:22.463Z,13.05
2023-10-12T01:04:34.196Z,13.05
2023-10-12T01:04:47.376Z,13.15
2023-10-12T01:04:59.109Z,12.70
2023-10-12T01:05:10.866Z,13.55
2023-10-12T01:05:22.597Z,14.65
2023-10-12T01:05:34.418Z,16.00
2023-10-12T01:05:46.379Z,16.95
2023-10-12T01:06:00.079Z,17.15
2023-10-12T01:06:12.101Z,17.45
2023-10-12T01:06:24.125Z,16.27
2023-10-12T01:06:35.897Z,15.20
2023-10-12T01:06:47.758Z,12.05
2023-10-12T01:06:59.658Z,13.43
2023-10-12T01:07:11.704Z,14.73
2023-10-12T01:07:23.500Z,14.23
2023-10-12T01:07:35.164Z,14.13
2023-10-12T01:07:46.929Z,15.40
2023-10-12T01:07:58.680Z,16.48
2023-10-12T01:08:13.419Z,17.60
2023-10-12T01:08:25.290Z,16.02
2023-10-12T01:08:37.983Z,15.82
2023-10-12T01:08:50.250Z,17.20
2023-10-12T01:09:01.942Z,14.95
2023-10-12T01:09:13.694Z,14.27
2023-10-12T01:09:25.659Z,13.68
2023-10-12T01:09:37.820Z,13.57
2023-10-12T01:09:49.929Z,15.52
2023-10-12T01:10:01.790Z,21.50
2023-10-12T01:10:13.505Z,21.95
2023-10-12T01:10:25.286Z,16.73
2023-10-12T01:10:37.088Z,16.50
2023-10-12T01:10:48.807Z,15.30
2023-10-12T01:11:01.097Z,18.15
2023-10-12T01:11:13.674Z,18.42
2023-10-12T01:11:25.415Z,14.98
2023-10-12T01:11:37.139Z,15.15
2023-10-12T01:11:50.507Z,12.57
2023-10-12T01:12:02.281Z,13.55
2023-10-12T01:12:14.059Z,15.18
2023-10-12T01:12:25.746Z,16.40
2023-10-12T01:12:37.630Z,21.50
2023-10-12T01:12:49.342Z,20.40
2023-10-12T01:13:01.160Z,16.42
2023-10-12T01:13:12.879Z,14.70
2023-10-12T01:13:24.569Z,15.30
2023-10-12T01:13:36.310Z,16.08
2023-10-12T01:13:49.204Z,15.25
2023-10-12T01:14:01.002Z,14.25
2023-10-12T01:14:12.766Z,13.10
2023-10-12T01:14:24.576Z,12.35
2023-10-12T01:14:36.351Z,11.43
2023-10-12T01:14:48.107Z,11.43
2023-10-12T01:14:59.908Z,14.77
2023-10-12T01:15:11.633Z,15.13
2023-10-12T01:15:23.922Z,12.82
2023-10-12T01:15:35.707Z,16.23
2023-10-12T01:15:47.532Z,17.58
2023-10-12T01:15:59.399Z,17.73
2023-10-12T01:16:11.306Z,13.88
2023-10-12T01:16:23.288Z,14.50
2023-10-12T01:16:35.076Z,17.83
2023-10-12T01:16:46.914Z,15.45
2023-10-12T01:16:58.820Z,15.70
2023-10-12T01:17:11.491Z,14.38
2023-10-12T01:17:23.290Z,15.20
2023-10-12T01:17:35.048Z,11.88
2023-10-12T01:17:46.842Z,11.15
2023-10-12T01:17:58.669Z,11.32
2023-10-12T01:18:10.388Z,12.68
2023-10-12T01:18:22.084Z,13.30
2023-10-12T01:18:33.817Z,16.73
2023-10-12T01:18:45.591Z,17.60
2023-10-12T01:18:57.408Z,16.83
2023-10-12T01:19:09.659Z,13.48
2023-10-12T01:19:21.606Z,11.90
2023-10-12T01:19:33.366Z,12.60
2023-10-12T01:19:45.480Z,13.88
2023-10-12T01:19:58.627Z,14.45
2023-10-12T01:20:11.274Z,11.98
2023-10-12T01:20:23.304Z,14.68
2023-10-12T01:20:35.081Z,15.85
2023-10-12T01:20:46.820Z,19.33
2023-10-12T01:20:58.553Z,14.65
2023-10-12T01:21:10.322Z,15.07
2023-10-12T01:21:22.155Z,15.70
2023-10-12T01:21:34.170Z,20.52
2023-10-12T01:21:47.411Z,19.77
2023-10-12T01:22:00.059Z,17.15
2023-10-12T01:22:12.488Z,17.08
2023-10-12T01:22:24.184Z,16.30
2023-10-12T01:22:35.892Z,15.63
2023-10-12T01:22:47.644Z,13.63
2023-10-12T01:22:59.444Z,12.20
2023-10-12T01:23:11.215Z,13.40
2023-10-12T01:23:22.956Z,14.68
2023-10-12T01:23:34.692Z,16.58
2023-10-12T01:23:46.441Z,17.13
2023-10-12T01:23:58.531Z,15.23
2023-10-12T01:24:10.433Z,16.30
2023-10-12T01:24:22.356Z,14.60
2023-10-12T01:24:34.180Z,14.00
2023-10-12T01:24:46.265Z,14.98
2023-10-12T01:24:58.120Z,14.65
2023-10-12T01:25:10.032Z,12.55
2023-10-12T01:25:21.776Z,13.82
2023-10-12T01:25:33.900Z,13.20
2023-10-12T01:25:45.660Z,13.90
2023-10-12T01:25:57.357Z,12.85
2023-10-12T01:26:09.144Z,14.07
2023-10-12T01:26:21.366Z,14.95
2023-10-12T01:26:33.074Z,21.35
2023-10-12T01:26:45.755Z,18.77
2023-10-12T01:26:58.104Z,14.88
2023-10-12T01:27:09.833Z,13.80
2023-10-12T01:27:21.990Z,13.50
2023-10-12T01:27:33.794Z,14.02
2023-10-12T01:27:45.685Z,15.18
2023-10-12T01:27:57.755Z,13.75
2023-10-12T01:28:09.494Z,14.32
2023-10-12T01:28:21.208Z,14.93
2023-10-12T01:28:32.911Z,13.32
2023-10-12T01:28:44.796Z,12.68
2023-10-12T01:28:56.556Z,12.32
2023-10-12T01:29:08.398Z,11.85
2023-10-12T01:29:20.105Z,11.98
2023-10-12T01:29:31.859Z,13.74
2023-10-12T01:29:43.638Z,12.23
2023-10-12T01:29:56.304Z,11.77
2023-10-12T01:30:09.300Z,12.10
2023-10-12T01:30:21.259Z,13.13
2023-10-12T01:30:32.997Z,15.38
2023-10-12T01:30:44.760Z,15.68
2023-10-12T01:30:56.532Z,15.98
2023-10-12T01:31:08.333Z,16.83
2023-10-12T01:31:20.025Z,16.55
2023-10-12T01:31:31.946Z,15.23
2023-10-12T01:31:43.825Z,11.73
2023-10-12T01:31:57.480Z,11.63
2023-10-12T01:32:09.258Z,14.55
2023-10-12T01:32:21.334Z,13.30
2023-10-12T01:32:33.170Z,12.13
2023-10-12T01:32:45.058Z,14.18
2023-10-12T01:32:57.442Z,18.35
2023-10-12T01:33:09.281Z,20.00
2023-10-12T01:33:21.099Z,16.70
2023-10-12T01:33:33.095Z,12.50
2023-10-12T01:33:44.922Z,11.18
2023-10-12T01:33:57.392Z,12.13
2023-10-12T01:34:09.174Z,14.55
2023-10-12T01:34:20.878Z,14.20
2023-10-12T01:34:32.600Z,13.50
2023-10-12T01:34:44.942Z,10.80
2023-10-12T01:34:56.649Z,9.65
2023-10-12T01:35:08.918Z,10.18
2023-10-12T01:35:21.134Z,11.95
2023-10-12T01:35:33.185Z,11.43
2023-10-12T01:35:44.940Z,12.32
2023-10-12T01:35:56.690Z,14.60
2023-10-12T01:36:08.420Z,16.50
2023-10-12T01:36:20.126Z,13.23
2023-10-12T01:36:32.075Z,12.80
2023-10-12T01:36:43.951Z,11.20
2023-10-12T01:36:57.166Z,12.40
2023-10-12T01:37:09.126Z,20.63
2023-10-12T01:37:21.375Z,21.98
2023-10-12T01:37:33.137Z,16.13
2023-10-12T01:37:44.828Z,12.63
2023-10-12T01:37:56.857Z,14.10
2023-10-12T01:38:08.684Z,13.65
2023-10-12T01:38:20.409Z,12.50
2023-10-12T01:38:32.118Z,13.88
2023-10-12T01:38:43.868Z,16.80
2023-10-12T01:38:55.655Z,17.70
2023-10-12T01:39:07.463Z,12.60
2023-10-12T01:39:19.196Z,12.10
2023-10-12T01:39:30.915Z,11.43
2023-10-12T01:39:42.691Z,13.90
2023-10-12T01:39:56.110Z,14.25
2023-10-12T01:40:09.317Z,11.98
2023-10-12T01:40:21.070Z,13.25
2023-10-12T01:40:33.252Z,14.70
2023-10-12T01:40:45.029Z,16.00
2023-10-12T01:40:57.666Z,14.57
2023-10-12T01:41:09.571Z,11.88
2023-10-12T01:41:22.737Z,14.57
2023-10-12T01:41:34.518Z,13.75
2023-10-12T01:41:46.249Z,15.60
2023-10-12T01:41:57.990Z,12.50
2023-10-12T01:42:10.561Z,12.07
2023-10-12T01:42:22.387Z,12.13
2023-10-12T01:42:34.684Z,13.75
2023-10-12T01:42:46.623Z,14.32
2023-10-12T01:42:58.544Z,13.07
2023-10-12T01:43:10.308Z,16.48
2023-10-12T01:43:22.054Z,18.73
2023-10-12T01:43:34.096Z,15.13
2023-10-12T01:43:45.801Z,16.63
2023-10-12T01:43:57.512Z,18.17
2023-10-12T01:44:09.411Z,16.98
2023-10-12T01:44:21.560Z,13.63
2023-10-12T01:44:33.369Z,11.75
2023-10-12T01:44:45.130Z,12.77
2023-10-12T01:44:56.851Z,13.13
2023-10-12T01:45:09.619Z,13.15
2023-10-12T01:45:22.186Z,14.45
2023-10-12T01:45:34.179Z,13.80
2023-10-12T01:45:46.543Z,13.13
2023-10-12T01:45:58.696Z,13.30
2023-10-12T01:46:10.585Z,15.05
2023-10-12T01:46:22.415Z,14.38
2023-10-12T01:46:34.303Z,17.85
2023-10-12T01:46:46.083Z,16.80
2023-10-12T01:46:57.889Z,14.95
2023-10-12T01:47:09.636Z,12.43
2023-10-12T01:47:21.384Z,14.38
2023-10-12T01:47:33.219Z,16.02
2023-10-12T01:47:45.266Z,16.58
2023-10-12T01:47:57.046Z,14.35
2023-10-12T01:48:09.038Z,14.35
2023-10-12T01:48:21.247Z,13.73
2023-10-12T01:48:33.113Z,11.90
2023-10-12T01:48:45.304Z,18.52
2023-10-12T01:48:57.024Z,17.35
2023-10-12T01:49:09.959Z,14.23
2023-10-12T01:49:21.668Z,13.80
2023-10-12T01:49:33.517Z,12.55
2023-10-12T01:49:45.197Z,11.43
2023-10-12T01:49:56.890Z,11.48
2023-10-12T01:50:09.048Z,11.07
2023-10-12T01:50:20.818Z,12.88
2023-10-12T01:50:32.706Z,14.27
2023-10-12T01:50:44.729Z,14.85
2023-10-12T01:50:56.439Z,13.90
2023-10-12T01:51:08.181Z,13.18
2023-10-12T01:51:20.348Z,12.13
2023-10-12T01:51:32.129Z,12.25
2023-10-12T01:51:43.897Z,13.77
2023-10-12T01:51:57.059Z,15.18
2023-10-12T01:52:08.778Z,13.77
2023-10-12T01:52:20.547Z,12.25
2023-10-12T01:52:33.459Z,12.50
2023-10-12T01:52:46.162Z,16.35
2023-10-12T01:52:57.925Z,17.60
2023-10-12T01:53:11.181Z,15.73
2023-10-12T01:53:23.029Z,13.18
2023-10-12T01:53:34.804Z,12.75
2023-10-12T01:53:46.569Z,17.10
2023-10-12T01:53:58.339Z,18.95
2023-10-12T01:54:10.295Z,15.30
2023-10-12T01:54:21.958Z,12.55
2023-10-12T01:54:33.738Z,13.82
2023-10-12T01:54:45.626Z,16.90
2023-10-12T01:54:57.476Z,16.42
2023-10-12T01:55:09.879Z,14.98
2023-10-12T01:55:21.664Z,11.70
2023-10-12T01:55:33.555Z,12.18
2023-10-12T01:55:45.384Z,12.25
2023-10-12T01:55:57.158Z,13.05
2023-10-12T01:56:09.087Z,13.27
2023-10-12T01:56:20.835Z,12.88
2023-10-12T01:56:33.329Z,11.65
2023-10-12T01:56:45.055Z,13.18
2023-10-12T01:56:56.705Z,14.18
2023-10-12T01:57:08.462Z,14.63
2023-10-12T01:57:20.153Z,12.30
2023-10-12T01:57:31.926Z,11.43
2023-10-12T01:57:43.928Z,11.40
2023-10-12T01:57:56.018Z,11.32
2023-10-12T01:58:07.807Z,11.68
2023-10-12T01:58:20.371Z,12.60
2023-10-12T01:58:32.120Z,11.32
2023-10-12T01:58:44.595Z,9.82
2023-10-12T01:58:56.425Z,10.70
2023-10-12T01:59:08.125Z,11.52
2023-10-12T01:59:20.118Z,19.30
2023-10-12T01:59:32.449Z,20.38
2023-10-12T01:59:44.204Z,13.57
2023-10-12T01:59:55.905Z,13.23
2023-10-12T02:00:08.657Z,14.02
2023-10-12T02:00:24.608Z,14.15
2023-10-12T02:00:37.309Z,11.70
2023-10-12T02:00:49.025Z,13.95
2023-10-12T02:01:00.779Z,15.18
2023-10-12T02:01:12.610Z,16.70
2023-10-12T02:01:24.640Z,14.20
2023-10-12T02:01:36.436Z,14.23
2023-10-12T02:01:48.663Z,13.50
2023-10-12T02:02:00.507Z,14.57
2023-10-12T02:02:12.323Z,14.38
2023-10-12T02:02:24.080Z,12.52
2023-10-12T02:02:35.930Z,11.32
2023-10-12T02:02:47.737Z,12.10
2023-10-12T02:02:59.505Z,12.30
2023-10-12T02:03:11.616Z,11.15
2023-10-12T02:03:24.684Z,10.48
2023-10-12T02:03:36.786Z,12.75
2023-10-12T02:03:48.606Z,15.45
2023-10-12T02:04:00.547Z,14.80
2023-10-12T02:04:12.358Z,11.00
2023-10-12T02:04:24.288Z,12.02
2023-10-12T02:04:36.113Z,13.55
2023-10-12T02:04:48.158Z,14.63
2023-10-12T02:05:00.219Z,14.18
2023-10-12T02:05:12.010Z,14.55
2023-10-12T02:05:24.590Z,14.05
2023-10-12T02:05:36.297Z,13.00
2023-10-12T02:05:48.162Z,12.48
2023-10-12T02:06:00.282Z,11.95
2023-10-12T02:06:13.519Z,14.65
2023-10-12T02:06:25.333Z,13.82
2023-10-12T02:06:37.117Z,13.30
2023-10-12T02:06:48.946Z,12.88
2023-10-12T02:07:02.129Z,12.40
2023-10-12T02:07:13.953Z,10.88
2023-10-12T02:07:25.754Z,10.38
2023-10-12T02:07:38.716Z,12.60
2023-10-12T02:07:50.445Z,13.60
2023-10-12T02:08:02.152Z,12.68
2023-10-12T02:08:15.848Z,11.10
2023-10-12T02:08:28.801Z,14.70
2023-10-12T02:08:42.192Z,17.33
2023-10-12T02:08:53.963Z,13.95
2023-10-12T02:09:05.715Z,11.38
2023-10-12T02:09:17.449Z,12.00
2023-10-12T02:09:29.255Z,12.57
2023-10-12T02:09:41.050Z,11.02
2023-10-12T02:09:52.917Z,13.40
2023-10-12T02:10:05.608Z,15.40
2023-10-12T02:10:17.412Z,16.27
2023-10-12T02:10:29.096Z,15.40
2023-10-12T02:10:40.782Z,18.25
2023-10-12T02:10:52.490Z,17.67
2023-10-12T02:11:04.532Z,18.90
2023-10-12T02:11:17.277Z,14.60
2023-10-12T02:11:29.168Z,12.73
2023-10-12T02:11:40.942Z,12.63
2023-10-12T02:11:52.788Z,13.45
2023-10-12T02:12:06.030Z,12.18
2023-10-12T02:12:17.716Z,11.07
2023-10-12T02:12:29.478Z,14.40
2023-10-12T02:12:41.223Z,15.57
2023-10-12T02:12:53.052Z,15.15
2023-10-12T02:13:04.786Z,13.32
2023-10-12T02:13:16.576Z,14.90
2023-10-12T02:13:28.351Z,12.70
2023-10-12T02:13:40.323Z,13.80
2023-10-12T02:13:52.086Z,12.57
2023-10-12T02:14:03.853Z,12.93
2023-10-12T02:14:15.634Z,12.82
2023-10-12T02:14:27.388Z,12.52
2023-10-12T02:14:39.185Z,12.48
2023-10-12T02:14:50.950Z,14.13
2023-10-12T02:15:02.732Z,13.27
2023-10-12T02:15:14.632Z,13.57
2023-10-12T02:15:26.386Z,12.82
2023-10-12T02:15:38.820Z,14.85
2023-10-12T02:15:50.876Z,15.63
2023-10-12T02:16:03.410Z,16.40
2023-10-12T02:16:16.236Z,14.55
2023-10-12T02:16:28.116Z,13.82
2023-10-12T02:16:40.209Z,16.48
2023-10-12T02:16:51.962Z,16.48
2023-10-12T02:17:03.753Z,12.82
2023-10-12T02:17:15.466Z,11.00
2023-10-12T02:17:27.735Z,12.95
2023-10-12T02:17:41.668Z,16.45
2023-10-12T02:17:53.478Z,16.75
2023-10-12T02:18:05.526Z,12.93
2023-10-12T02:18:17.506Z,14.77
2023-10-12T02:18:29.397Z,15.32
2023-10-12T02:18:42.256Z,14.45
2023-10-12T02:18:54.381Z,12.90
2023-10-12T02:19:06.667Z,13.65
2023-10-12T02:19:18.336Z,15.32
2023-10-12T02:19:30.125Z,16.23
2023-10-12T02:19:41.886Z,16.27
2023-10-12T02:19:53.640Z,15.20
2023-10-12T02:20:06.064Z,15.52
2023-10-12T02:20:19.028Z,17.65
2023-10-12T02:20:32.163Z,15.95
2023-10-12T02:20:43.927Z,13.57
2023-10-12T02:20:55.632Z,13.50
2023-10-12T02:21:07.417Z,14.35
2023-10-12T02:21:19.164Z,15.77
2023-10-12T02:21:31.473Z,18.52
2023-10-12T02:21:43.216Z,19.98
2023-10-12T02:21:55.051Z,15.80
2023-10-12T02:22:08.720Z,13.57
2023-10-12T02:22:20.443Z,11.35
2023-10-12T02:22:32.163Z,10.02
2023-10-12T02:22:43.854Z,12.63
2023-10-12T02:22:55.571Z,13.90
2023-10-12T02:23:07.276Z,19.42
2023-10-12T02:23:18.926Z,18.88
2023-10-12T02:23:30.771Z,16.20
2023-10-12T02:23:42.479Z,17.70
2023-10-12T02:23:54.593Z,15.02
2023-10-12T02:24:06.963Z,18.83
2023-10-12T02:24:18.799Z,18.00
2023-10-12T02:24:30.683Z,17.75
2023-10-12T02:24:42.464Z,13.98
2023-10-12T02:24:54.323Z,12.27
2023-10-12T02:25:06.895Z,14.55
2023-10-12T02:25:18.606Z,15.30
2023-10-12T02:25:30.948Z,14.23
2023-10-12T02:25:42.664Z,12.98
2023-10-12T02:25:54.418Z,19.15
2023-10-12T02:26:07.062Z,19.38
2023-10-12T02:26:20.267Z,11.55
2023-10-12T02:26:33.652Z,12.27
2023-10-12T02:26:46.888Z,13.52
2023-10-12T02:26:58.570Z,13.50
2023-10-12T02:27:10.288Z,14.95
2023-10-12T02:27:23.125Z,14.80
2023-10-12T02:27:34.884Z,17.77
2023-10-12T02:27:46.703Z,15.93
2023-10-12T02:27:58.448Z,14.23
2023-10-12T02:28:10.304Z,13.63
2023-10-12T02:28:22.072Z,14.75
2023-10-12T02:28:33.757Z,13.32
2023-10-12T02:28:45.462Z,13.30
2023-10-12T02:28:57.603Z,14.20
2023-10-12T02:29:10.808Z,11.80
2023-10-12T02:29:22.639Z,13.13
2023-10-12T02:29:34.385Z,13.18
2023-10-12T02:29:46.134Z,13.05
2023-10-12T02:29:57.952Z,12.27
2023-10-12T02:30:10.630Z,13.20
2023-10-12T02:30:22.947Z,12.20
2023-10-12T02:30:34.874Z,13.93
2023-10-12T02:30:51.447Z,16.38
2023-10-12T02:31:03.312Z,16.68
2023-10-12T02:31:15.200Z,15.13
2023-10-12T02:31:27.008Z,13.25
2023-10-12T02:31:40.979Z,14.77
2023-10-12T02:31:53.947Z,13.27
2023-10-12T02:32:05.762Z,11.40
2023-10-12T02:32:17.548Z,12.07
2023-10-12T02:32:29.294Z,12.85
2023-10-12T02:32:41.136Z,12.30
2023-10-12T02:32:52.844Z,13.10
2023-10-12T02:33:05.017Z,14.65
2023-10-12T02:33:16.729Z,13.90
2023-10-12T02:33:28.640Z,12.45
2023-10-12T02:33:40.614Z,12.63
2023-10-12T02:33:52.381Z,13.77
2023-10-12T02:34:04.357Z,14.73
2023-10-12T02:34:16.342Z,13.85
2023-10-12T02:34:29.508Z,13.80
2023-10-12T02:34:41.233Z,14.43
2023-10-12T02:34:52.897Z,13.73
2023-10-12T02:35:05.202Z,13.45
2023-10-12T02:35:16.875Z,13.40
2023-10-12T02:35:28.594Z,15.13